Aérodrome :
LOGIN :

S'inscrire | Disclaimer

   EN    FR    IT 

 










Légende :    VFR   VFR Marginal   IFR   IFR Intensif   IFR Très Intensif
Visi : 
Plafond : 
>= 8 km
>= 3000ft
5 à 8 km
1000 à 3000 ft
1500m à 5 km
500 à 1000 ft
800 à 1500m
200 à 500 ft
< 800m
< 200 ft
Symboles :   Orages  Brouillard  Fortes neiges  Fortes précipitations  Vent > 20 kt
SIGMETs :   Divers  Orages  Givrage  Turbulence  Onde Orograph.  Cendres Volcan.







- Altitude de l'aérodrome : 1197 ft
- Code IATA : SPM


ETAD - Spangdahlem Ab

DERNIER METAR :
  • 210356Z AUTO 07003KT 9999 CLR 15/11 A2987 RMK AO2 SLP093 T01520110 $

METARs EXPIRÉS :
  • 210256Z AUTO 00000KT 9999 CLR 17/11 A2986 RMK AO2 SLP088 T01700108 58004 $
  • 210156Z AUTO 00000KT 9999 SCT110 18/11 A2986 RMK AO2 SLP086 T01780111 $

TAF TAF ETAD
Valide du 21 à 03h jusqu'au 22 à 09h UTC


210311Z 2103/2209 VRB06KT 9999 SCT060 SCT110 QNH2982INS
BECMG 2110/2111 23006KT 8000 -SHRA BKN040 QNH2985INS
TEMPO 2112/2118 22012G20KT 6000 -TSRA BKN040CB
BECMG 2119/2120 33006KT 9999 NSW SCT040 BKN045 QNH2986INS TX24/2112Z TN16/2103Z
Pas de NOTAMs connus pour ce terrain.



MET'MAP, la Météo Aéronautique d'un coup d'oeil ! - Copyright ORBIFLY Décembre 2007 - Disclaimer

ORBIFLY MET'MAP TEAM :

Programmation & Développement : Alexandra Zaïnal
Conception & Développement : Baudouin d'Aumeries
Co-Programmation & Développement : Marc-Olivier Méhu
Soutien technique & logistique : Manuel Goepfert

Contact : metmap@orbifly.com




SOURCES & CREDITS :

   NOAA